Time;durP1;ratioP1;P1;durP2;ratioP2;P2;SDS_P1;SDS_P2;PMS_P1;PMS_P2;Temp;Humidity;BMP_temperature;BMP_pressure;BME280_temperature;BME280_humidity;BME280_pressure;Samples;Min_cycle;Max_cycle;Signal;HPM_P1;HPM_P2
2023/03/29 00:00:48;;;;;;;4.90;2.25;;;7.60;90.70;;;;;;5076002;28;20041;-74
2023/03/29 00:03:14;;;;;;;7.28;2.20;;;7.50;90.80;;;;;;5074858;28;20029;-74
2023/03/29 00:05:41;;;;;;;3.38;2.00;;;7.60;90.70;;;;;;5074709;28;20017;-75
2023/03/29 00:08:07;;;;;;;5.72;2.15;;;7.60;91.00;;;;;;5075007;28;20028;-74
2023/03/29 00:10:33;;;;;;;3.38;2.20;;;7.60;90.90;;;;;;5058223;28;20032;-74
2023/03/29 00:13:00;;;;;;;4.90;2.17;;;7.50;90.60;;;;;;5074904;28;20036;-74
2023/03/29 00:15:26;;;;;;;5.65;2.40;;;7.60;90.70;;;;;;5058286;28;20028;-74
2023/03/29 00:17:52;;;;;;;5.15;2.72;;;7.60;90.50;;;;;;5075740;28;20055;-74
2023/03/29 00:20:18;;;;;;;6.05;1.90;;;7.70;90.80;;;;;;5074763;28;20398;-74
2023/03/29 00:22:45;;;;;;;6.20;2.50;;;7.60;90.90;;;;;;5075671;28;20025;-74
2023/03/29 00:25:12;;;;;;;4.15;2.30;;;7.50;91.00;;;;;;5075538;28;20021;-74
2023/03/29 00:27:38;;;;;;;4.57;2.13;;;7.50;90.90;;;;;;5074419;28;20052;-74
2023/03/29 00:30:07;;;;;;;5.20;2.22;;;7.60;90.80;;;;;;5075443;28;20154;-74
2023/03/29 00:32:33;;;;;;;7.10;2.42;;;7.50;91.00;;;;;;5074499;28;20029;-74
2023/03/29 00:34:59;;;;;;;4.43;2.03;;;7.50;91.10;;;;;;5075521;28;20047;-74
2023/03/29 00:37:29;;;;;;;4.25;2.03;;;7.50;90.90;;;;;;5057710;28;20064;-74
2023/03/29 00:39:56;;;;;;;5.50;2.17;;;7.50;90.90;;;;;;5074272;28;20048;-74
2023/03/29 00:42:23;;;;;;;4.63;2.17;;;7.50;91.10;;;;;;5074895;28;20095;-74
2023/03/29 00:45:00;;;;;;;4.90;2.70;;;7.50;91.00;;;;;;5074184;28;20037;-74
2023/03/29 00:47:41;;;;;;;5.50;2.55;;;7.50;91.00;;;;;;5075302;28;20029;-74
2023/03/29 00:50:21;;;;;;;5.18;2.17;;;7.50;91.00;;;;;;5075168;28;20044;-74
2023/03/29 00:52:58;;;;;;;4.82;2.20;;;7.50;91.00;;;;;;5075233;28;20025;-74
2023/03/29 00:55:27;;;;;;;3.88;2.13;;;7.50;91.10;;;;;;5075029;28;20516;-75
2023/03/29 00:57:55;;;;;;;4.43;1.80;;;7.50;91.10;;;;;;5075111;28;20032;-74
2023/03/29 01:00:27;;;;;;;3.88;2.05;;;7.50;91.00;;;;;;5075056;28;20047;-75
2023/03/29 01:02:58;;;;;;;6.32;2.65;;;7.50;91.00;;;;;;5073800;28;20050;-74
2023/03/29 01:05:39;;;;;;;4.15;1.73;;;7.50;90.70;;;;;;5074850;28;20024;-74
2023/03/29 01:08:16;;;;;;;4.18;2.03;;;7.50;90.80;;;;;;5073789;28;20021;-74
2023/03/29 01:10:47;;;;;;;5.63;2.17;;;7.50;90.90;;;;;;5074890;28;20024;-74
2023/03/29 01:13:25;;;;;;;3.85;1.77;;;7.50;90.80;;;;;;5073743;28;20025;-74
2023/03/29 01:15:53;;;;;;;3.35;1.90;;;7.50;90.80;;;;;;5073676;28;20035;-75
2023/03/29 01:18:21;;;;;;;4.72;2.35;;;7.50;90.80;;;;;;5074151;28;20056;-74
2023/03/29 01:21:14;;;;;;;7.30;2.15;;;7.50;90.70;;;;;;5073602;28;20040;-74
2023/03/29 01:23:53;;;;;;;5.07;2.20;;;7.50;90.70;;;;;;5074407;28;20036;-74
2023/03/29 01:26:29;;;;;;;4.15;1.88;;;7.50;90.70;;;;;;5073462;28;20024;-74
2023/03/29 01:29:02;;;;;;;4.85;2.00;;;7.60;91.10;;;;;;5074390;28;20036;-74
2023/03/29 01:31:31;;;;;;;4.90;1.90;;;7.60;90.90;;;;;;5074348;28;20531;-74
2023/03/29 01:34:10;;;;;;;4.03;1.85;;;7.60;90.90;;;;;;5074258;28;20509;-74
2023/03/29 01:36:45;;;;;;;3.95;1.90;;;7.60;90.90;;;;;;5074248;28;20021;-74
2023/03/29 01:39:11;;;;;;;3.30;1.95;;;7.50;91.00;;;;;;5074187;28;20036;-74
2023/03/29 01:41:57;;;;;;;3.50;2.08;;;7.50;90.90;;;;;;5072943;28;20048;-74
2023/03/29 01:44:56;;;;;;;4.40;1.85;;;7.50;91.10;;;;;;5073980;28;20064;-74
2023/03/29 01:47:53;;;;;;;4.80;1.95;;;7.50;91.00;;;;;;5074146;28;20024;-74
2023/03/29 01:50:32;;;;;;;6.43;1.98;;;7.50;90.90;;;;;;5073963;28;20107;-74
2023/03/29 01:53:06;;;;;;;4.15;1.17;;;7.50;90.80;;;;;;5072917;28;20092;-74
2023/03/29 01:55:37;;;;;;;5.13;2.08;;;7.50;90.90;;;;;;5073865;28;20025;-74
2023/03/29 01:58:04;;;;;;;2.72;1.70;;;7.50;91.40;;;;;;5072884;28;20386;-74
2023/03/29 02:00:31;;;;;;;3.85;1.65;;;7.50;91.50;;;;;;5073761;28;20032;-74
2023/03/29 02:03:00;;;;;;;4.80;2.13;;;7.50;92.00;;;;;;5072625;28;20105;-74
2023/03/29 02:05:28;;;;;;;3.90;1.42;;;7.50;92.60;;;;;;5073673;28;20069;-74
2023/03/29 02:07:56;;;;;;;4.70;2.20;;;7.40;92.90;;;;;;5072671;28;20092;-74
2023/03/29 02:10:22;;;;;;;4.28;1.92;;;7.50;93.00;;;;;;5072560;28;20032;-74
2023/03/29 02:12:49;;;;;;;3.58;1.83;;;7.40;93.10;;;;;;5072483;28;20029;-74
2023/03/29 02:15:18;;;;;;;4.70;1.77;;;7.40;93.20;;;;;;5072495;28;20131;-74
2023/03/29 02:17:46;;;;;;;3.83;2.00;;;7.40;93.30;;;;;;5073484;28;20052;-74
2023/03/29 02:20:21;;;;;;;7.35;2.13;;;7.40;93.20;;;;;;5073462;28;20065;-74
2023/03/29 02:22:53;;;;;;;6.28;2.25;;;7.50;93.50;;;;;;5073539;28;20039;-74
2023/03/29 02:25:21;;;;;;;3.05;1.80;;;7.50;93.50;;;;;;5073442;28;20065;-74
2023/03/29 02:27:47;;;;;;;3.63;1.95;;;7.50;93.50;;;;;;5072246;28;20047;-74
2023/03/29 02:30:16;;;;;;;4.88;1.75;;;7.50;93.60;;;;;;5055032;28;20029;-74
2023/03/29 02:33:00;;;;;;;4.55;2.30;;;7.50;93.70;;;;;;5073249;28;20021;-74
2023/03/29 02:35:33;;;;;;;5.35;2.30;;;7.50;93.80;;;;;;5072366;28;20024;-75
2023/03/29 02:38:02;;;;;;;5.28;1.80;;;7.50;94.10;;;;;;5073295;28;20051;-74
2023/03/29 02:40:29;;;;;;;6.30;2.45;;;7.40;94.40;;;;;;5073215;28;20029;-74
2023/03/29 02:42:56;;;;;;;8.70;2.28;;;7.40;94.60;;;;;;5072946;28;20045;-74
2023/03/29 02:45:23;;;;;;;3.67;2.03;;;7.40;94.80;;;;;;5073144;28;20024;-74
2023/03/29 02:47:52;;;;;;;6.53;2.30;;;7.40;95.00;;;;;;5072088;28;20028;-74
2023/03/29 02:50:19;;;;;;;3.42;1.90;;;7.40;95.10;;;;;;5073100;28;20017;-74
2023/03/29 02:52:59;;;;;;;3.33;2.00;;;7.40;95.00;;;;;;5073045;28;20017;-74
2023/03/29 02:55:30;;;;;;;3.45;1.70;;;7.50;94.90;;;;;;5072091;28;20036;-74
2023/03/29 02:57:56;;;;;;;3.33;1.98;;;7.50;94.90;;;;;;5072036;28;20040;-74
2023/03/29 03:00:22;;;;;;;5.25;2.53;;;7.50;94.90;;;;;;5073049;28;20025;-74
2023/03/29 03:02:49;;;;;;;4.13;2.00;;;7.50;95.00;;;;;;5071974;28;20029;-74
2023/03/29 03:05:16;;;;;;;5.97;2.13;;;7.50;95.10;;;;;;5055565;28;20024;-74
2023/03/29 03:07:42;;;;;;;6.40;2.50;;;7.50;95.00;;;;;;5072144;28;20025;-74
2023/03/29 03:10:09;;;;;;;5.82;2.05;;;7.50;95.00;;;;;;5072934;28;20085;-74
2023/03/29 03:12:36;;;;;;;6.53;2.42;;;7.50;95.10;;;;;;5071971;28;20027;-74
2023/03/29 03:15:04;;;;;;;4.25;2.20;;;7.50;95.00;;;;;;5055518;28;20025;-74
2023/03/29 03:17:32;;;;;;;3.88;2.28;;;7.50;95.20;;;;;;5071951;28;20029;-74
2023/03/29 03:19:58;;;;;;;3.80;2.00;;;7.50;95.00;;;;;;5072830;28;20031;-74
2023/03/29 03:22:23;;;;;;;5.15;2.53;;;7.60;94.90;;;;;;5071802;28;20097;-74
2023/03/29 03:24:49;;;;;;;4.13;2.10;;;7.60;94.90;;;;;;5071834;28;20033;-74
2023/03/29 03:27:15;;;;;;;4.97;2.67;;;7.60;94.80;;;;;;5072661;28;20025;-74
2023/03/29 03:29:41;;;;;;;5.57;2.80;;;7.70;94.90;;;;;;5071796;28;20021;-74
2023/03/29 03:32:06;;;;;;;4.90;1.90;;;7.70;94.80;;;;;;5071659;28;20024;-74
2023/03/29 03:34:33;;;;;;;4.20;1.88;;;7.60;94.80;;;;;;5071699;28;20025;-74
2023/03/29 03:37:00;;;;;;;4.07;2.10;;;7.60;95.00;;;;;;5071739;28;20032;-74
2023/03/29 03:39:26;;;;;;;4.85;2.45;;;7.60;95.00;;;;;;5071721;28;20040;-74
2023/03/29 03:41:52;;;;;;;8.15;2.47;;;7.60;95.00;;;;;;5058339;28;20048;-74
2023/03/29 03:44:17;;;;;;;4.68;2.33;;;7.60;95.10;;;;;;5076284;28;20041;-74
2023/03/29 03:46:43;;;;;;;4.53;2.53;;;7.50;95.20;;;;;;5076292;28;20040;-74
2023/03/29 03:49:09;;;;;;;4.45;2.42;;;7.60;95.10;;;;;;5075305;28;20510;-74
2023/03/29 03:51:34;;;;;;;4.03;2.35;;;7.60;95.00;;;;;;5075205;28;20039;-74
2023/03/29 03:54:00;;;;;;;4.57;2.63;;;7.60;94.80;;;;;;5076210;28;20047;-74
2023/03/29 03:56:28;;;;;;;5.35;2.45;;;7.70;94.80;;;;;;5075259;28;20025;-74
2023/03/29 03:58:54;;;;;;;5.85;2.33;;;7.60;94.70;;;;;;5075039;28;20060;-74
2023/03/29 04:01:20;;;;;;;3.40;2.10;;;7.50;94.90;;;;;;5076009;28;20108;-74
2023/03/29 04:03:45;;;;;;;4.20;2.00;;;7.50;95.10;;;;;;5058433;28;20036;-74
2023/03/29 04:06:11;;;;;;;4.07;2.08;;;7.50;95.30;;;;;;5041780;28;20432;-74
2023/03/29 04:08:37;;;;;;;3.83;2.22;;;7.60;94.90;;;;;;5074983;28;20052;-74
2023/03/29 04:11:03;;;;;;;5.28;2.08;;;7.60;94.80;;;;;;5075059;28;20021;-74
2023/03/29 04:13:28;;;;;;;4.03;1.95;;;7.50;94.70;;;;;;5074891;28;20033;-74
2023/03/29 04:15:55;;;;;;;5.40;2.17;;;7.50;94.80;;;;;;5074896;28;20025;-74
2023/03/29 04:18:22;;;;;;;5.68;2.42;;;7.60;94.60;;;;;;5074648;28;20033;-74
2023/03/29 04:20:49;;;;;;;4.20;2.20;;;7.60;94.20;;;;;;5074710;28;20021;-74
2023/03/29 04:23:15;;;;;;;8.20;2.42;;;7.60;93.90;;;;;;5074762;28;20033;-74
2023/03/29 04:25:40;;;;;;;4.40;1.92;;;7.60;93.30;;;;;;5075617;28;20032;-74
2023/03/29 04:28:06;;;;;;;5.55;2.13;;;7.70;93.20;;;;;;5075444;28;20029;-74
2023/03/29 04:30:32;;;;;;;4.45;1.88;;;7.70;92.90;;;;;;5075489;28;20028;-74
2023/03/29 04:32:58;;;;;;;6.07;2.60;;;7.80;92.50;;;;;;5074651;28;20437;-74
2023/03/29 04:35:24;;;;;;;5.65;2.10;;;7.80;92.40;;;;;;5074456;28;20025;-74
2023/03/29 04:37:51;;;;;;;2.72;1.85;;;7.80;92.30;;;;;;5074395;28;20098;-74
2023/03/29 04:40:18;;;;;;;4.55;1.98;;;7.90;92.30;;;;;;5074545;28;20028;-74
2023/03/29 04:42:46;;;;;;;5.43;1.90;;;7.90;92.20;;;;;;5057436;28;20041;-74
2023/03/29 04:45:13;;;;;;;5.00;2.25;;;7.90;91.90;;;;;;5075134;28;20025;-74
2023/03/29 04:47:39;;;;;;;5.55;1.95;;;7.90;91.90;;;;;;5074213;28;20082;-74
2023/03/29 04:50:07;;;;;;;4.65;2.17;;;7.90;92.20;;;;;;5074260;28;20049;-74
2023/03/29 04:52:32;;;;;;;5.20;2.35;;;7.90;92.00;;;;;;5056721;28;20031;-74
2023/03/29 04:55:00;;;;;;;3.25;1.80;;;7.90;91.90;;;;;;5057595;28;20048;-74
2023/03/29 04:57:26;;;;;;;6.10;2.45;;;7.90;91.90;;;;;;5074089;28;20032;-74
2023/03/29 04:59:52;;;;;;;4.70;2.30;;;8.00;92.00;;;;;;5057266;28;20120;-74
2023/03/29 05:02:18;;;;;;;2.88;1.88;;;8.00;91.70;;;;;;5057111;28;20033;-74
2023/03/29 05:04:44;;;;;;;4.60;2.25;;;8.00;91.80;;;;;;5073870;28;20092;-74
2023/03/29 05:07:10;;;;;;;5.80;2.20;;;8.00;91.80;;;;;;5074906;28;20036;-74
2023/03/29 05:09:36;;;;;;;4.57;2.20;;;8.00;91.80;;;;;;5073841;28;20025;-74
2023/03/29 05:12:02;;;;;;;3.72;1.65;;;8.00;91.80;;;;;;5074870;28;20017;-74
2023/03/29 05:14:27;;;;;;;3.78;1.40;;;8.00;91.50;;;;;;5056945;28;20401;-74
2023/03/29 05:16:53;;;;;;;3.40;2.17;;;8.10;91.70;;;;;;5073704;28;20029;-74
2023/03/29 05:19:20;;;;;;;3.78;2.10;;;8.10;91.60;;;;;;5073430;28;20083;-74
2023/03/29 05:21:48;;;;;;;3.97;2.08;;;8.10;91.30;;;;;;5057130;28;20021;-75
2023/03/29 05:24:15;;;;;;;2.95;2.17;;;8.10;91.40;;;;;;5057014;28;20029;-74
2023/03/29 05:26:41;;;;;;;5.35;2.22;;;8.10;91.60;;;;;;5073295;28;20024;-74
2023/03/29 05:29:07;;;;;;;2.40;1.48;;;8.10;91.60;;;;;;5073487;28;20029;-74
2023/03/29 05:31:34;;;;;;;6.50;2.10;;;8.10;91.30;;;;;;5056969;28;20089;-74
2023/03/29 05:33:59;;;;;;;5.70;2.05;;;8.10;91.50;;;;;;5073405;28;20025;-74
2023/03/29 05:36:25;;;;;;;4.65;2.28;;;8.10;91.40;;;;;;5073329;28;20120;-74
2023/03/29 05:38:51;;;;;;;4.05;2.03;;;8.10;91.40;;;;;;5074190;28;20047;-74
2023/03/29 05:41:16;;;;;;;4.10;2.10;;;8.20;91.30;;;;;;5073136;28;20053;-74
2023/03/29 05:43:42;;;;;;;5.22;2.20;;;8.20;91.30;;;;;;5056457;28;20520;-74
2023/03/29 05:46:08;;;;;;;4.45;1.85;;;8.20;91.30;;;;;;5073156;28;20025;-74
2023/03/29 05:48:34;;;;;;;4.75;2.20;;;8.20;91.40;;;;;;5074007;28;20082;-74
2023/03/29 05:51:00;;;;;;;5.95;2.42;;;8.20;91.40;;;;;;5073938;28;20081;-73
2023/03/29 05:53:27;;;;;;;3.88;2.08;;;8.30;91.20;;;;;;5072900;28;20025;-74
2023/03/29 05:55:54;;;;;;;4.93;2.33;;;8.30;91.30;;;;;;5073849;28;20032;-74
2023/03/29 05:58:20;;;;;;;4.10;2.35;;;8.30;91.30;;;;;;5072787;28;20028;-74
2023/03/29 06:00:50;;;;;;;4.85;2.08;;;8.30;91.80;;;;;;5056241;28;20032;-74
2023/03/29 06:03:18;;;;;;;4.05;2.42;;;8.30;91.20;;;;;;5072994;28;20044;-74
2023/03/29 06:05:48;;;;;;;3.40;2.03;;;8.30;91.10;;;;;;5072643;28;20029;-74
2023/03/29 06:08:15;;;;;;;5.57;2.42;;;8.30;91.40;;;;;;5073650;28;20024;-74
2023/03/29 06:10:41;;;;;;;4.70;2.10;;;8.30;91.50;;;;;;5073634;28;20045;-74
2023/03/29 06:13:07;;;;;;;4.13;2.47;;;8.30;91.50;;;;;;5056035;28;20029;-74
2023/03/29 06:15:33;;;;;;;5.93;2.08;;;8.40;91.60;;;;;;5072603;28;20028;-74
2023/03/29 06:18:00;;;;;;;5.40;2.50;;;8.40;91.40;;;;;;5073558;28;20021;-74
2023/03/29 06:20:26;;;;;;;6.45;2.53;;;8.40;91.30;;;;;;5073496;28;20111;-74
2023/03/29 06:22:52;;;;;;;4.97;2.72;;;8.40;91.30;;;;;;5072474;28;20040;-74
2023/03/29 06:25:18;;;;;;;5.10;2.30;;;8.40;91.40;;;;;;5073428;28;20021;-74
2023/03/29 06:27:47;;;;;;;10.02;1.88;;;8.40;91.50;;;;;;5073274;28;20014;-74
2023/03/29 06:30:14;;;;;;;5.57;2.85;;;8.40;91.80;;;;;;5056008;28;20028;-74
2023/03/29 06:32:41;;;;;;;9.98;2.60;;;8.40;91.60;;;;;;5072255;28;20033;-74
2023/03/29 06:35:07;;;;;;;4.50;2.33;;;8.50;91.40;;;;;;5039274;28;20025;-73
2023/03/29 06:37:33;;;;;;;4.45;2.00;;;8.50;91.80;;;;;;5073144;28;20025;-74
2023/03/29 06:40:06;;;;;;;5.97;1.92;;;8.50;91.70;;;;;;5072103;28;20033;-75
2023/03/29 06:42:34;;;;;;;6.60;2.88;;;8.50;91.80;;;;;;5071958;28;20056;-74
2023/03/29 06:45:00;;;;;;;4.97;1.90;;;8.50;91.80;;;;;;5072063;28;20036;-74
2023/03/29 06:47:29;;;;;;;4.95;2.53;;;8.60;91.60;;;;;;5073099;28;20025;-75
2023/03/29 06:49:56;;;;;;;4.22;2.25;;;8.60;91.80;;;;;;5072224;28;20029;-74
2023/03/29 06:52:21;;;;;;;5.47;2.30;;;8.60;91.70;;;;;;5073010;28;20017;-77
2023/03/29 06:54:48;;;;;;;6.57;2.75;;;8.70;91.60;;;;;;5073024;28;20116;-78
2023/03/29 06:57:17;;;;;;;5.28;2.67;;;8.70;91.80;;;;;;5055506;28;20034;-76
2023/03/29 06:59:43;;;;;;;3.70;2.03;;;8.70;92.30;;;;;;5072079;28;20024;-77
2023/03/29 07:02:11;;;;;;;4.57;2.30;;;8.70;91.40;;;;;;5072819;28;20033;-77
2023/03/29 07:04:37;;;;;;;5.57;2.55;;;8.80;91.60;;;;;;5072041;28;20249;-76
2023/03/29 07:07:04;;;;;;;7.13;2.85;;;8.80;91.60;;;;;;5072989;28;20025;-76
2023/03/29 07:09:34;;;;;;;7.68;3.58;;;8.90;91.50;;;;;;5071851;28;20043;-76
2023/03/29 07:12:01;;;;;;;5.47;2.50;;;8.90;91.70;;;;;;5073017;28;20029;-76
2023/03/29 07:14:28;;;;;;;4.43;2.65;;;9.00;91.80;;;;;;5071968;28;20025;-77
2023/03/29 07:16:55;;;;;;;6.72;3.15;;;9.00;91.70;;;;;;5076535;28;20021;-76
2023/03/29 07:19:23;;;;;;;5.47;2.63;;;9.10;91.80;;;;;;5076798;28;20091;-77
2023/03/29 07:21:49;;;;;;;6.18;2.45;;;9.10;91.80;;;;;;5075748;28;20116;-76
2023/03/29 07:24:15;;;;;;;7.35;2.70;;;9.10;91.70;;;;;;5075765;28;20050;-76
2023/03/29 07:26:41;;;;;;;9.57;3.08;;;9.20;92.00;;;;;;5076583;28;20021;-77
2023/03/29 07:29:10;;;;;;;9.18;3.40;;;9.20;91.80;;;;;;5075592;28;20025;-76
2023/03/29 07:31:39;;;;;;;6.30;2.83;;;9.20;91.80;;;;;;5076656;28;20044;-76
2023/03/29 07:34:09;;;;;;;4.90;2.63;;;9.30;92.00;;;;;;5075509;28;20053;-76
2023/03/29 07:36:38;;;;;;;5.07;3.00;;;9.30;91.90;;;;;;5076559;28;20028;-76
2023/03/29 07:39:06;;;;;;;7.22;3.00;;;9.40;92.10;;;;;;5076426;28;20044;-75
2023/03/29 07:41:32;;;;;;;6.65;3.03;;;9.40;92.00;;;;;;5075249;28;20041;-76
2023/03/29 07:44:00;;;;;;;5.78;2.67;;;9.50;92.00;;;;;;5076345;28;20029;-75
2023/03/29 07:46:27;;;;;;;5.80;2.85;;;9.50;91.90;;;;;;5075394;28;20021;-75
2023/03/29 07:48:55;;;;;;;5.35;3.03;;;9.50;91.70;;;;;;5075386;28;20021;-76
2023/03/29 07:51:48;;;;;;;6.63;3.10;;;9.50;91.90;;;;;;5075270;28;20036;-75
2023/03/29 07:54:20;;;;;;;6.90;2.90;;;9.60;92.00;;;;;;5071709;28;20575;-75
2023/03/29 07:56:46;;;;;;;4.22;2.55;;;9.60;92.30;;;;;;5058427;28;20032;-75
2023/03/29 07:59:15;;;;;;;4.57;2.97;;;9.60;92.10;;;;;;5076023;28;20037;-75
2023/03/29 08:01:41;;;;;;;6.97;3.13;;;9.60;92.80;;;;;;5074871;28;20036;-75
2023/03/29 08:04:07;;;;;;;7.32;3.70;;;9.70;92.40;;;;;;5075897;28;20022;-75
2023/03/29 08:06:32;;;;;;;7.60;3.28;;;9.70;92.60;;;;;;5075899;28;20067;-75
2023/03/29 08:08:59;;;;;;;10.18;3.45;;;9.80;92.60;;;;;;5075817;28;20033;-75
2023/03/29 08:11:25;;;;;;;6.35;3.03;;;9.80;92.80;;;;;;5075875;28;20056;-75
2023/03/29 08:13:50;;;;;;;6.03;2.80;;;9.80;92.60;;;;;;5074772;28;20032;-75
2023/03/29 08:16:17;;;;;;;6.75;3.00;;;9.90;93.00;;;;;;5075799;28;20021;-75
2023/03/29 08:18:42;;;;;;;6.40;3.28;;;9.90;92.80;;;;;;5074862;28;20029;-75
2023/03/29 08:21:08;;;;;;;7.25;3.15;;;9.90;93.20;;;;;;5075702;28;20032;-75
2023/03/29 08:23:34;;;;;;;12.98;6.25;;;9.90;93.20;;;;;;5075605;28;20048;-76
2023/03/29 08:26:00;;;;;;;104.05;37.45;;;9.90;93.60;;;;;;5075278;28;20032;-76
2023/03/29 08:28:26;;;;;;;9.15;5.22;;;9.90;94.30;;;;;;5074640;28;20051;-75
2023/03/29 08:30:52;;;;;;;12.27;5.35;;;9.80;94.60;;;;;;5074566;28;20025;-75
2023/03/29 08:33:18;;;;;;;7.22;2.97;;;9.80;94.80;;;;;;5075416;28;20080;-76
2023/03/29 08:35:45;;;;;;;8.23;3.28;;;9.80;95.30;;;;;;5075355;28;20033;-76
2023/03/29 08:38:11;;;;;;;5.80;3.00;;;9.80;95.40;;;;;;5074458;28;20021;-76
2023/03/29 08:40:37;;;;;;;6.68;3.33;;;9.80;95.50;;;;;;5075248;28;20021;-76
2023/03/29 08:43:24;;;;;;;8.05;3.45;;;9.80;95.90;;;;;;5074005;28;20056;-76
2023/03/29 08:46:09;;;;;;;8.23;3.53;;;9.80;95.90;;;;;;5074347;28;20039;-76
2023/03/29 08:48:42;;;;;;;8.90;3.30;;;9.80;96.30;;;;;;5074323;28;20040;-76
2023/03/29 08:51:41;;;;;;;9.30;3.38;;;9.80;96.30;;;;;;5075304;28;20021;-76
2023/03/29 08:54:23;;;;;;;8.30;3.65;;;9.90;96.30;;;;;;5071293;28;20033;-76
2023/03/29 08:57:05;;;;;;;6.05;3.00;;;9.90;96.50;;;;;;5075091;28;20025;-76
2023/03/29 08:59:32;;;;;;;6.88;3.47;;;9.90;96.30;;;;;;5074993;28;20025;-76
2023/03/29 09:01:59;;;;;;;8.45;3.55;;;9.90;96.40;;;;;;5073817;28;20039;-76
2023/03/29 09:04:32;;;;;;;7.30;3.95;;;9.90;96.50;;;;;;5073934;28;20021;-75
2023/03/29 09:06:58;;;;;;;28.88;10.70;;;10.00;96.70;;;;;;5074694;28;20016;-75
2023/03/29 09:09:32;;;;;;;7.68;3.80;;;10.10;96.50;;;;;;5073692;28;20048;-73
2023/03/29 09:12:22;;;;;;;6.60;3.17;;;10.10;96.80;;;;;;5074874;28;20066;-73
2023/03/29 09:15:05;;;;;;;8.18;3.72;;;10.10;97.20;;;;;;5074818;28;20032;-74
2023/03/29 09:17:46;;;;;;;12.23;4.50;;;10.20;96.90;;;;;;5073647;28;20473;-73
2023/03/29 09:20:50;;;;;;;10.23;3.85;;;10.20;96.90;;;;;;5074705;28;20017;-74
2023/03/29 09:23:41;;;;;;;7.22;3.53;;;10.30;97.60;;;;;;5074471;28;20390;-74
2023/03/29 09:26:22;;;;;;;9.00;4.38;;;10.40;97.40;;;;;;5074457;28;20482;-74
2023/03/29 09:32:10;;;;;;;8.60;4.30;;;10.40;97.30;;;;;;5060448;28;20031;-73
2023/03/29 09:35:08;;;;;;;8.85;4.38;;;10.40;97.30;;;;;;5073351;28;20097;-73
2023/03/29 09:37:37;;;;;;;8.82;3.47;;;10.50;98.10;;;;;;5074017;28;20052;-74
2023/03/29 09:40:15;;;;;;;11.63;3.45;;;10.60;98.10;;;;;;5074079;28;20050;-74
2023/03/29 09:42:43;;;;;;;10.52;4.55;;;10.60;97.80;;;;;;5073896;28;20049;-73
2023/03/29 09:45:12;;;;;;;6.82;3.70;;;10.60;97.70;;;;;;5074002;28;20020;-73
2023/03/29 09:47:49;;;;;;;7.30;3.85;;;10.70;98.10;;;;;;5074144;28;20027;-74
2023/03/29 09:50:38;;;;;;;8.77;3.65;;;10.70;97.80;;;;;;5074154;28;20021;-73
2023/03/29 09:53:04;;;;;;;6.28;3.20;;;10.70;98.00;;;;;;5073955;28;20036;-74
2023/03/29 09:55:32;;;;;;;9.35;4.50;;;10.70;97.70;;;;;;5073847;28;20033;-74
2023/03/29 09:58:00;;;;;;;7.82;4.38;;;10.70;97.80;;;;;;5051949;28;20044;-74
2023/03/29 10:00:27;;;;;;;9.27;4.35;;;10.70;97.50;;;;;;5052143;28;20042;-74
2023/03/29 10:02:56;;;;;;;8.60;4.35;;;10.80;97.40;;;;;;5035443;28;20041;-73
2023/03/29 10:05:24;;;;;;;6.60;3.53;;;10.80;97.50;;;;;;5052036;28;20097;-73
2023/03/29 10:07:56;;;;;;;8.50;4.05;;;10.80;97.40;;;;;;5051026;28;20038;-74
2023/03/29 10:10:32;;;;;;;9.15;4.50;;;10.90;97.30;;;;;;5050830;28;20120;-74
2023/03/29 10:13:04;;;;;;;8.68;4.32;;;10.80;97.40;;;;;;5051370;28;20041;-74
2023/03/29 10:15:30;;;;;;;11.82;4.40;;;10.90;97.80;;;;;;5051870;28;20052;-74
2023/03/29 10:17:58;;;;;;;10.98;4.13;;;10.90;98.20;;;;;;5051787;28;20057;-73
2023/03/29 10:20:24;;;;;;;9.05;4.70;;;10.90;98.00;;;;;;5051727;28;20037;-73
2023/03/29 10:22:58;;;;;;;9.23;4.63;;;10.80;97.90;;;;;;5035063;28;20045;-73
2023/03/29 10:25:28;;;;;;;10.43;4.45;;;10.80;98.00;;;;;;5051682;28;20093;-74
2023/03/29 10:28:01;;;;;;;10.00;4.72;;;10.80;98.50;;;;;;5053254;28;20081;-74
2023/03/29 10:30:27;;;;;;;11.50;4.50;;;10.70;99.00;;;;;;5073361;28;20532;-74
2023/03/29 10:32:58;;;;;;;7.85;4.53;;;10.60;99.40;;;;;;5055969;28;20025;-74
2023/03/29 10:35:45;;;;;;;10.57;4.80;;;10.60;99.50;;;;;;5073311;28;20040;-75
2023/03/29 10:38:17;;;;;;;9.25;4.60;;;10.60;99.90;;;;;;5073150;28;20035;-73
2023/03/29 10:40:48;;;;;;;10.73;4.85;;;10.50;99.90;;;;;;5073211;28;20032;-73
2023/03/29 10:43:31;;;;;;;9.40;5.18;;;10.60;99.90;;;;;;5072975;28;20037;-74
2023/03/29 10:46:11;;;;;;;8.35;4.43;;;10.60;99.90;;;;;;5073233;28;20041;-73
2023/03/29 10:48:38;;;;;;;9.23;5.63;;;10.60;99.90;;;;;;5073341;28;20025;-73
2023/03/29 10:51:06;;;;;;;10.90;5.53;;;10.60;99.90;;;;;;5072433;28;20017;-73
2023/03/29 10:53:34;;;;;;;11.32;5.10;;;10.70;99.90;;;;;;5072149;28;20032;-73
2023/03/29 10:56:25;;;;;;;12.43;5.85;;;10.80;99.90;;;;;;5072981;28;20398;-74
2023/03/29 10:59:05;;;;;;;10.25;5.88;;;10.80;99.90;;;;;;5073081;28;20040;-73
2023/03/29 11:01:34;;;;;;;12.73;5.80;;;10.80;99.90;;;;;;5073039;28;20033;-73
2023/03/29 11:04:18;;;;;;;12.05;6.05;;;10.80;99.90;;;;;;5071958;28;20085;-73
2023/03/29 11:07:09;;;;;;;12.43;5.82;;;10.80;99.90;;;;;;5072931;28;20021;-74
2023/03/29 11:09:36;;;;;;;9.17;6.23;;;10.80;99.90;;;;;;5069167;28;20041;-73
2023/03/29 11:12:11;;;;;;;9.93;5.97;;;10.90;99.90;;;;;;5072899;28;20056;-73
2023/03/29 11:15:01;;;;;;;12.52;6.38;;;10.90;99.90;;;;;;5073075;28;20085;-73
2023/03/29 11:17:49;;;;;;;13.55;7.03;;;10.90;99.90;;;;;;5071879;28;20040;-73
2023/03/29 11:20:26;;;;;;;11.15;5.72;;;11.10;99.90;;;;;;5072886;28;20021;-73
2023/03/29 11:23:12;;;;;;;12.82;6.60;;;11.10;99.90;;;;;;5071729;28;20096;-74
2023/03/29 11:25:52;;;;;;;12.07;6.28;;;11.20;99.90;;;;;;5071842;28;20041;-74
2023/03/29 11:28:46;;;;;;;14.27;7.88;;;11.30;99.90;;;;;;5072763;28;20021;-73
2023/03/29 11:31:21;;;;;;;13.48;6.57;;;11.30;99.90;;;;;;5072770;28;20085;-73
2023/03/29 11:34:18;;;;;;;10.80;6.20;;;11.30;99.90;;;;;;5072880;28;20021;-73
2023/03/29 11:37:04;;;;;;;11.30;5.78;;;11.40;99.90;;;;;;5072674;28;20032;-73
2023/03/29 11:39:48;;;;;;;15.68;6.45;;;11.40;99.90;;;;;;5072706;28;20182;-73
2023/03/29 11:42:22;;;;;;;15.00;7.28;;;11.40;99.90;;;;;;5072413;28;20051;-73
2023/03/29 11:44:50;;;;;;;10.13;6.28;;;11.50;99.90;;;;;;5071645;28;20035;-73
2023/03/29 11:47:21;;;;;;;12.10;5.88;;;11.50;99.90;;;;;;5071522;28;20043;-74
2023/03/29 11:50:02;;;;;;;13.23;6.32;;;11.50;99.90;;;;;;5072621;28;20024;-73
2023/03/29 11:52:42;;;;;;;12.98;6.72;;;11.50;99.90;;;;;;5072601;28;20081;-73
2023/03/29 11:55:17;;;;;;;12.15;5.95;;;11.60;99.90;;;;;;5072565;28;20024;-74
2023/03/29 11:58:00;;;;;;;13.25;5.88;;;11.70;99.90;;;;;;5072548;28;20022;-73
2023/03/29 12:00:35;;;;;;;12.05;6.10;;;11.80;99.90;;;;;;5072522;28;20514;-73
2023/03/29 12:03:16;;;;;;;9.82;5.85;;;11.80;99.90;;;;;;5074961;28;20029;-73
2023/03/29 12:05:53;;;;;;;10.80;6.15;;;11.90;99.90;;;;;;5075940;28;20025;-73
2023/03/29 12:08:27;;;;;;;10.75;6.60;;;12.00;99.80;;;;;;5074825;28;20055;-73
2023/03/29 12:11:21;;;;;;;12.15;5.65;;;12.10;99.70;;;;;;5074969;28;20029;-74
2023/03/29 12:13:56;;;;;;;10.00;5.75;;;12.10;99.30;;;;;;5076011;28;20080;-73
2023/03/29 12:16:43;;;;;;;12.77;5.68;;;12.30;99.80;;;;;;5075918;28;20021;-74
2023/03/29 12:19:18;;;;;;;14.00;5.97;;;12.30;98.40;;;;;;5074766;28;20386;-73
2023/03/29 12:21:46;;;;;;;11.32;4.75;;;12.30;98.40;;;;;;5074772;28;20226;-73
2023/03/29 12:24:14;;;;;;;10.20;5.30;;;12.30;98.00;;;;;;5057935;28;20029;-74
2023/03/29 12:26:56;;;;;;;10.57;5.88;;;12.20;98.20;;;;;;5075539;28;20171;-74
2023/03/29 12:29:39;;;;;;;8.35;5.10;;;12.30;97.70;;;;;;5075569;28;20048;-74
2023/03/29 12:32:20;;;;;;;11.60;5.32;;;12.30;98.00;;;;;;5075539;28;20029;-74
2023/03/29 12:35:23;;;;;;;11.65;5.68;;;12.30;97.80;;;;;;5074534;28;20021;-74
2023/03/29 12:38:12;;;;;;;11.48;5.15;;;12.30;97.50;;;;;;5075409;28;20037;-73
2023/03/29 12:40:44;;;;;;;10.68;6.13;;;12.30;97.90;;;;;;5075524;28;20025;-74
2023/03/29 12:43:23;;;;;;;12.77;6.38;;;12.30;98.10;;;;;;5074095;28;20079;-74
2023/03/29 12:45:54;;;;;;;10.90;5.78;;;12.40;98.10;;;;;;5075482;28;20043;-74
2023/03/29 12:48:23;;;;;;;9.93;5.45;;;12.40;98.00;;;;;;5074306;28;20024;-73
2023/03/29 12:50:52;;;;;;;10.43;5.60;;;12.40;97.50;;;;;;5075285;28;20017;-74
2023/03/29 12:53:27;;;;;;;12.13;5.88;;;12.50;97.50;;;;;;5075068;28;20095;-74
2023/03/29 12:56:09;;;;;;;8.68;5.30;;;12.50;97.40;;;;;;5075093;28;20021;-74
2023/03/29 12:58:37;;;;;;;9.27;5.53;;;12.60;97.40;;;;;;5075083;28;20025;-73
2023/03/29 13:01:22;;;;;;;9.10;5.00;;;12.60;96.80;;;;;;5073990;28;20295;-74
2023/03/29 13:03:50;;;;;;;10.85;4.90;;;12.60;96.40;;;;;;5074913;28;20021;-74
2023/03/29 13:06:34;;;;;;;9.27;5.07;;;12.70;96.50;;;;;;5074889;28;20025;-74
2023/03/29 13:09:22;;;;;;;6.78;3.97;;;12.80;96.40;;;;;;5075006;28;20021;-74
2023/03/29 13:11:53;;;;;;;8.45;5.20;;;12.80;96.00;;;;;;5064211;28;20033;-73
2023/03/29 13:14:22;;;;;;;9.00;5.28;;;12.90;95.90;;;;;;5073054;28;20028;-74
2023/03/29 13:16:48;;;;;;;8.68;4.65;;;13.00;95.40;;;;;;5074648;28;20029;-73